sensor_id;sensor_type;location;lat;lon;timestamp;P1;durP1;ratioP1;P2;durP2;ratioP2
46723;SDS011;32463;48.298;11.620;2023-03-22T00:02:04;10.57;;;7.70;;
46723;SDS011;32463;48.298;11.620;2023-03-22T00:04:30;10.60;;;7.90;;
46723;SDS011;32463;48.298;11.620;2023-03-22T00:06:57;11.93;;;7.65;;
46723;SDS011;32463;48.298;11.620;2023-03-22T00:09:23;11.55;;;7.55;;
46723;SDS011;32463;48.298;11.620;2023-03-22T00:11:50;16.42;;;8.32;;
46723;SDS011;32463;48.298;11.620;2023-03-22T00:14:16;11.20;;;7.15;;
46723;SDS011;32463;48.298;11.620;2023-03-22T00:16:43;10.60;;;7.30;;
46723;SDS011;32463;48.298;11.620;2023-03-22T00:19:13;9.73;;;7.30;;
46723;SDS011;32463;48.298;11.620;2023-03-22T00:21:39;10.93;;;7.43;;
46723;SDS011;32463;48.298;11.620;2023-03-22T00:24:06;13.43;;;7.35;;
46723;SDS011;32463;48.298;11.620;2023-03-22T00:26:33;10.35;;;7.32;;
46723;SDS011;32463;48.298;11.620;2023-03-22T00:28:59;9.98;;;7.30;;
46723;SDS011;32463;48.298;11.620;2023-03-22T00:31:26;10.65;;;6.97;;
46723;SDS011;32463;48.298;11.620;2023-03-22T00:33:52;9.98;;;7.05;;
46723;SDS011;32463;48.298;11.620;2023-03-22T00:36:18;10.10;;;6.80;;
46723;SDS011;32463;48.298;11.620;2023-03-22T00:38:45;11.00;;;7.00;;
46723;SDS011;32463;48.298;11.620;2023-03-22T00:41:13;11.60;;;7.28;;
46723;SDS011;32463;48.298;11.620;2023-03-22T00:43:43;11.93;;;7.18;;
46723;SDS011;32463;48.298;11.620;2023-03-22T00:46:10;9.73;;;6.82;;
46723;SDS011;32463;48.298;11.620;2023-03-22T00:48:37;9.25;;;6.55;;
46723;SDS011;32463;48.298;11.620;2023-03-22T00:51:04;10.15;;;6.82;;
46723;SDS011;32463;48.298;11.620;2023-03-22T00:53:32;9.52;;;6.68;;
46723;SDS011;32463;48.298;11.620;2023-03-22T00:56:00;11.00;;;6.50;;
46723;SDS011;32463;48.298;11.620;2023-03-22T00:58:27;9.60;;;6.53;;
46723;SDS011;32463;48.298;11.620;2023-03-22T01:00:53;10.13;;;6.95;;
46723;SDS011;32463;48.298;11.620;2023-03-22T01:03:20;10.27;;;7.28;;
46723;SDS011;32463;48.298;11.620;2023-03-22T01:05:47;11.13;;;6.95;;
46723;SDS011;32463;48.298;11.620;2023-03-22T01:08:14;9.43;;;6.93;;
46723;SDS011;32463;48.298;11.620;2023-03-22T01:10:41;8.45;;;6.53;;
46723;SDS011;32463;48.298;11.620;2023-03-22T01:13:09;10.45;;;6.88;;
46723;SDS011;32463;48.298;11.620;2023-03-22T01:15:37;9.63;;;6.70;;
46723;SDS011;32463;48.298;11.620;2023-03-22T01:18:03;8.85;;;6.55;;
46723;SDS011;32463;48.298;11.620;2023-03-22T01:20:31;9.77;;;6.70;;
46723;SDS011;32463;48.298;11.620;2023-03-22T01:22:58;7.90;;;5.88;;
46723;SDS011;32463;48.298;11.620;2023-03-22T01:25:24;8.65;;;6.80;;
46723;SDS011;32463;48.298;11.620;2023-03-22T01:27:51;11.68;;;7.03;;
46723;SDS011;32463;48.298;11.620;2023-03-22T01:30:17;10.90;;;6.63;;
46723;SDS011;32463;48.298;11.620;2023-03-22T01:32:44;9.50;;;7.03;;
46723;SDS011;32463;48.298;11.620;2023-03-22T01:35:10;9.70;;;6.43;;
46723;SDS011;32463;48.298;11.620;2023-03-22T01:37:37;9.07;;;6.50;;
46723;SDS011;32463;48.298;11.620;2023-03-22T01:40:04;8.13;;;6.00;;
46723;SDS011;32463;48.298;11.620;2023-03-22T01:42:31;8.80;;;6.40;;
46723;SDS011;32463;48.298;11.620;2023-03-22T01:47:43;10.20;;;6.68;;
46723;SDS011;32463;48.298;11.620;2023-03-22T01:50:14;9.35;;;6.68;;
46723;SDS011;32463;48.298;11.620;2023-03-22T01:52:42;9.30;;;6.70;;
46723;SDS011;32463;48.298;11.620;2023-03-22T01:55:09;10.52;;;7.50;;
46723;SDS011;32463;48.298;11.620;2023-03-22T01:57:37;10.10;;;6.88;;
46723;SDS011;32463;48.298;11.620;2023-03-22T02:00:06;11.35;;;7.03;;
46723;SDS011;32463;48.298;11.620;2023-03-22T02:02:37;13.27;;;7.30;;
46723;SDS011;32463;48.298;11.620;2023-03-22T02:05:04;10.63;;;7.28;;
46723;SDS011;32463;48.298;11.620;2023-03-22T02:07:30;13.48;;;8.05;;
46723;SDS011;32463;48.298;11.620;2023-03-22T02:09:57;11.85;;;7.35;;
46723;SDS011;32463;48.298;11.620;2023-03-22T02:12:33;9.20;;;6.75;;
46723;SDS011;32463;48.298;11.620;2023-03-22T02:15:24;10.05;;;7.13;;
46723;SDS011;32463;48.298;11.620;2023-03-22T02:20:40;12.93;;;7.68;;
46723;SDS011;32463;48.298;11.620;2023-03-22T02:31:58;10.90;;;8.07;;
46723;SDS011;32463;48.298;11.620;2023-03-22T02:37:40;15.02;;;7.68;;
46723;SDS011;32463;48.298;11.620;2023-03-22T02:42:56;11.60;;;8.13;;
46723;SDS011;32463;48.298;11.620;2023-03-22T02:48:13;12.60;;;8.23;;
46723;SDS011;32463;48.298;11.620;2023-03-22T02:50:53;10.88;;;8.20;;
46723;SDS011;32463;48.298;11.620;2023-03-22T02:55:58;11.80;;;7.82;;
46723;SDS011;32463;48.298;11.620;2023-03-22T02:58:36;10.18;;;6.97;;
46723;SDS011;32463;48.298;11.620;2023-03-22T03:01:12;11.23;;;7.72;;
46723;SDS011;32463;48.298;11.620;2023-03-22T03:03:46;11.43;;;7.45;;
46723;SDS011;32463;48.298;11.620;2023-03-22T03:06:19;11.02;;;7.75;;
46723;SDS011;32463;48.298;11.620;2023-03-22T03:08:49;11.63;;;7.82;;
46723;SDS011;32463;48.298;11.620;2023-03-22T03:11:18;14.18;;;8.32;;
46723;SDS011;32463;48.298;11.620;2023-03-22T03:13:46;14.77;;;8.30;;
46723;SDS011;32463;48.298;11.620;2023-03-22T03:16:14;9.52;;;6.82;;
46723;SDS011;32463;48.298;11.620;2023-03-22T03:32:20;8.38;;;6.00;;
46723;SDS011;32463;48.298;11.620;2023-03-22T03:34:55;10.07;;;6.32;;
46723;SDS011;32463;48.298;11.620;2023-03-22T03:37:51;9.13;;;6.50;;
46723;SDS011;32463;48.298;11.620;2023-03-22T03:40:20;11.20;;;6.82;;
46723;SDS011;32463;48.298;11.620;2023-03-22T03:42:52;11.85;;;6.70;;
46723;SDS011;32463;48.298;11.620;2023-03-22T03:45:21;8.57;;;6.00;;
46723;SDS011;32463;48.298;11.620;2023-03-22T03:47:48;9.63;;;6.53;;
46723;SDS011;32463;48.298;11.620;2023-03-22T03:50:21;7.28;;;6.15;;
46723;SDS011;32463;48.298;11.620;2023-03-22T03:52:49;9.00;;;5.85;;
46723;SDS011;32463;48.298;11.620;2023-03-22T03:55:17;8.57;;;6.13;;
46723;SDS011;32463;48.298;11.620;2023-03-22T03:57:44;10.18;;;6.65;;
46723;SDS011;32463;48.298;11.620;2023-03-22T04:00:14;11.23;;;6.65;;
46723;SDS011;32463;48.298;11.620;2023-03-22T04:02:42;9.73;;;7.25;;
46723;SDS011;32463;48.298;11.620;2023-03-22T04:05:11;11.20;;;6.88;;
46723;SDS011;32463;48.298;11.620;2023-03-22T04:07:38;9.73;;;6.60;;
46723;SDS011;32463;48.298;11.620;2023-03-22T04:10:05;10.20;;;6.68;;
46723;SDS011;32463;48.298;11.620;2023-03-22T04:12:33;9.73;;;6.95;;
46723;SDS011;32463;48.298;11.620;2023-03-22T04:14:59;12.75;;;6.45;;
46723;SDS011;32463;48.298;11.620;2023-03-22T04:17:27;8.82;;;6.60;;
46723;SDS011;32463;48.298;11.620;2023-03-22T04:19:56;11.60;;;6.63;;
46723;SDS011;32463;48.298;11.620;2023-03-22T04:22:22;10.25;;;6.60;;
46723;SDS011;32463;48.298;11.620;2023-03-22T04:24:50;9.15;;;6.40;;
46723;SDS011;32463;48.298;11.620;2023-03-22T04:27:18;11.20;;;6.95;;
46723;SDS011;32463;48.298;11.620;2023-03-22T04:29:46;8.85;;;6.53;;
46723;SDS011;32463;48.298;11.620;2023-03-22T04:32:15;8.93;;;6.18;;
46723;SDS011;32463;48.298;11.620;2023-03-22T04:34:45;12.15;;;7.43;;
46723;SDS011;32463;48.298;11.620;2023-03-22T04:37:13;10.02;;;7.03;;
46723;SDS011;32463;48.298;11.620;2023-03-22T04:39:42;11.15;;;6.88;;
46723;SDS011;32463;48.298;11.620;2023-03-22T04:42:09;11.38;;;7.35;;
46723;SDS011;32463;48.298;11.620;2023-03-22T04:44:36;10.95;;;7.40;;
46723;SDS011;32463;48.298;11.620;2023-03-22T04:47:02;8.75;;;6.47;;
46723;SDS011;32463;48.298;11.620;2023-03-22T04:49:29;12.13;;;6.35;;
46723;SDS011;32463;48.298;11.620;2023-03-22T04:51:56;10.35;;;6.97;;
46723;SDS011;32463;48.298;11.620;2023-03-22T04:54:23;8.95;;;6.63;;
46723;SDS011;32463;48.298;11.620;2023-03-22T04:56:49;9.10;;;6.60;;
46723;SDS011;32463;48.298;11.620;2023-03-22T04:59:16;9.55;;;6.20;;
46723;SDS011;32463;48.298;11.620;2023-03-22T05:01:47;12.05;;;6.68;;
46723;SDS011;32463;48.298;11.620;2023-03-22T05:04:15;13.75;;;7.07;;
46723;SDS011;32463;48.298;11.620;2023-03-22T05:06:43;9.13;;;6.53;;
46723;SDS011;32463;48.298;11.620;2023-03-22T05:09:10;9.50;;;6.15;;
46723;SDS011;32463;48.298;11.620;2023-03-22T05:11:37;9.82;;;5.90;;
46723;SDS011;32463;48.298;11.620;2023-03-22T05:14:05;9.60;;;5.65;;
46723;SDS011;32463;48.298;11.620;2023-03-22T05:16:33;8.90;;;5.95;;
46723;SDS011;32463;48.298;11.620;2023-03-22T05:19:00;8.82;;;6.28;;
46723;SDS011;32463;48.298;11.620;2023-03-22T05:21:27;8.50;;;5.97;;
46723;SDS011;32463;48.298;11.620;2023-03-22T05:24:01;10.65;;;5.88;;
46723;SDS011;32463;48.298;11.620;2023-03-22T05:26:28;7.38;;;5.50;;
46723;SDS011;32463;48.298;11.620;2023-03-22T05:28:54;9.70;;;5.68;;
46723;SDS011;32463;48.298;11.620;2023-03-22T05:31:21;9.35;;;5.78;;
46723;SDS011;32463;48.298;11.620;2023-03-22T05:33:48;8.70;;;5.90;;
46723;SDS011;32463;48.298;11.620;2023-03-22T05:36:17;7.80;;;5.50;;
46723;SDS011;32463;48.298;11.620;2023-03-22T05:38:45;8.63;;;5.65;;
46723;SDS011;32463;48.298;11.620;2023-03-22T05:41:12;7.63;;;5.30;;
46723;SDS011;32463;48.298;11.620;2023-03-22T05:43:38;10.13;;;5.55;;
46723;SDS011;32463;48.298;11.620;2023-03-22T05:46:09;10.20;;;5.75;;
46723;SDS011;32463;48.298;11.620;2023-03-22T05:48:37;6.80;;;5.10;;
46723;SDS011;32463;48.298;11.620;2023-03-22T05:51:06;8.13;;;5.10;;
46723;SDS011;32463;48.298;11.620;2023-03-22T05:53:37;8.18;;;5.40;;
46723;SDS011;32463;48.298;11.620;2023-03-22T05:56:03;8.82;;;5.03;;
46723;SDS011;32463;48.298;11.620;2023-03-22T05:58:34;9.25;;;5.15;;
46723;SDS011;32463;48.298;11.620;2023-03-22T06:01:04;7.03;;;4.75;;
46723;SDS011;32463;48.298;11.620;2023-03-22T06:03:36;6.97;;;5.40;;
46723;SDS011;32463;48.298;11.620;2023-03-22T06:06:04;16.60;;;8.05;;
46723;SDS011;32463;48.298;11.620;2023-03-22T06:08:52;10.52;;;5.20;;
46723;SDS011;32463;48.298;11.620;2023-03-22T06:11:20;10.40;;;5.20;;
46723;SDS011;32463;48.298;11.620;2023-03-22T06:13:47;9.82;;;4.70;;
46723;SDS011;32463;48.298;11.620;2023-03-22T06:16:13;7.03;;;4.65;;
46723;SDS011;32463;48.298;11.620;2023-03-22T06:18:40;6.95;;;4.70;;
46723;SDS011;32463;48.298;11.620;2023-03-22T06:21:06;8.60;;;5.10;;
46723;SDS011;32463;48.298;11.620;2023-03-22T06:23:33;8.05;;;4.80;;
46723;SDS011;32463;48.298;11.620;2023-03-22T06:25:59;5.97;;;4.53;;
46723;SDS011;32463;48.298;11.620;2023-03-22T06:28:25;8.20;;;4.60;;
46723;SDS011;32463;48.298;11.620;2023-03-22T06:30:53;7.28;;;5.00;;
46723;SDS011;32463;48.298;11.620;2023-03-22T06:33:20;7.43;;;4.97;;
46723;SDS011;32463;48.298;11.620;2023-03-22T06:35:46;8.88;;;4.60;;
46723;SDS011;32463;48.298;11.620;2023-03-22T06:38:13;7.50;;;4.55;;
46723;SDS011;32463;48.298;11.620;2023-03-22T06:40:40;10.20;;;4.75;;
46723;SDS011;32463;48.298;11.620;2023-03-22T06:43:06;8.63;;;4.90;;
46723;SDS011;32463;48.298;11.620;2023-03-22T06:45:33;8.23;;;4.70;;
46723;SDS011;32463;48.298;11.620;2023-03-22T06:48:00;6.72;;;4.63;;
46723;SDS011;32463;48.298;11.620;2023-03-22T06:50:27;6.25;;;4.15;;
46723;SDS011;32463;48.298;11.620;2023-03-22T06:52:54;10.60;;;4.47;;
46723;SDS011;32463;48.298;11.620;2023-03-22T06:55:21;8.13;;;4.28;;
46723;SDS011;32463;48.298;11.620;2023-03-22T06:57:47;6.85;;;4.30;;
46723;SDS011;32463;48.298;11.620;2023-03-22T07:00:14;7.97;;;4.38;;
46723;SDS011;32463;48.298;11.620;2023-03-22T07:02:41;8.00;;;4.78;;
46723;SDS011;32463;48.298;11.620;2023-03-22T07:05:07;7.20;;;4.32;;
46723;SDS011;32463;48.298;11.620;2023-03-22T07:07:34;11.40;;;4.50;;
46723;SDS011;32463;48.298;11.620;2023-03-22T07:10:00;6.40;;;4.10;;
46723;SDS011;32463;48.298;11.620;2023-03-22T07:12:27;9.13;;;4.50;;
46723;SDS011;32463;48.298;11.620;2023-03-22T07:14:53;7.72;;;4.75;;
46723;SDS011;32463;48.298;11.620;2023-03-22T07:17:20;6.78;;;4.05;;
46723;SDS011;32463;48.298;11.620;2023-03-22T07:19:46;10.05;;;4.35;;
46723;SDS011;32463;48.298;11.620;2023-03-22T07:22:13;7.80;;;4.32;;
46723;SDS011;32463;48.298;11.620;2023-03-22T07:24:39;8.38;;;4.10;;
46723;SDS011;32463;48.298;11.620;2023-03-22T07:27:06;7.15;;;4.25;;
46723;SDS011;32463;48.298;11.620;2023-03-22T07:29:33;6.55;;;4.28;;
46723;SDS011;32463;48.298;11.620;2023-03-22T07:31:59;6.90;;;4.30;;
46723;SDS011;32463;48.298;11.620;2023-03-22T07:34:25;8.88;;;4.20;;
46723;SDS011;32463;48.298;11.620;2023-03-22T07:36:52;9.23;;;4.75;;
46723;SDS011;32463;48.298;11.620;2023-03-22T07:39:20;8.20;;;4.30;;
46723;SDS011;32463;48.298;11.620;2023-03-22T07:41:48;12.50;;;5.15;;
46723;SDS011;32463;48.298;11.620;2023-03-22T07:44:17;10.75;;;4.55;;
46723;SDS011;32463;48.298;11.620;2023-03-22T07:46:43;9.32;;;4.18;;
46723;SDS011;32463;48.298;11.620;2023-03-22T07:49:10;7.20;;;4.22;;
46723;SDS011;32463;48.298;11.620;2023-03-22T07:51:36;7.22;;;4.22;;
46723;SDS011;32463;48.298;11.620;2023-03-22T07:54:03;7.53;;;4.43;;
46723;SDS011;32463;48.298;11.620;2023-03-22T07:56:29;7.72;;;4.53;;
46723;SDS011;32463;48.298;11.620;2023-03-22T07:58:59;7.82;;;4.40;;
46723;SDS011;32463;48.298;11.620;2023-03-22T08:01:25;7.45;;;4.20;;
46723;SDS011;32463;48.298;11.620;2023-03-22T08:03:52;10.15;;;4.22;;
46723;SDS011;32463;48.298;11.620;2023-03-22T08:06:18;7.97;;;4.57;;
46723;SDS011;32463;48.298;11.620;2023-03-22T08:08:45;10.77;;;4.25;;
46723;SDS011;32463;48.298;11.620;2023-03-22T08:11:13;8.43;;;4.32;;
46723;SDS011;32463;48.298;11.620;2023-03-22T08:13:39;7.07;;;4.10;;
46723;SDS011;32463;48.298;11.620;2023-03-22T08:16:05;6.45;;;4.00;;
46723;SDS011;32463;48.298;11.620;2023-03-22T08:18:32;7.47;;;3.70;;
46723;SDS011;32463;48.298;11.620;2023-03-22T08:20:59;8.38;;;3.92;;
46723;SDS011;32463;48.298;11.620;2023-03-22T08:23:26;7.03;;;3.60;;
46723;SDS011;32463;48.298;11.620;2023-03-22T08:25:53;7.03;;;3.80;;
46723;SDS011;32463;48.298;11.620;2023-03-22T08:28:19;6.03;;;3.63;;
46723;SDS011;32463;48.298;11.620;2023-03-22T08:30:46;7.82;;;3.95;;
46723;SDS011;32463;48.298;11.620;2023-03-22T08:33:14;7.22;;;4.15;;
46723;SDS011;32463;48.298;11.620;2023-03-22T08:35:41;5.65;;;3.70;;
46723;SDS011;32463;48.298;11.620;2023-03-22T08:38:09;6.38;;;3.95;;
46723;SDS011;32463;48.298;11.620;2023-03-22T08:40:35;6.43;;;4.10;;
46723;SDS011;32463;48.298;11.620;2023-03-22T08:43:02;5.07;;;3.85;;
46723;SDS011;32463;48.298;11.620;2023-03-22T08:45:29;8.77;;;4.68;;
46723;SDS011;32463;48.298;11.620;2023-03-22T08:47:56;7.72;;;4.10;;
46723;SDS011;32463;48.298;11.620;2023-03-22T08:50:23;9.65;;;4.07;;
46723;SDS011;32463;48.298;11.620;2023-03-22T08:52:51;5.85;;;4.28;;
46723;SDS011;32463;48.298;11.620;2023-03-22T08:55:17;7.72;;;4.07;;
46723;SDS011;32463;48.298;11.620;2023-03-22T08:57:44;4.68;;;3.33;;
46723;SDS011;32463;48.298;11.620;2023-03-22T09:00:14;5.13;;;3.67;;
46723;SDS011;32463;48.298;11.620;2023-03-22T09:02:42;5.53;;;3.88;;
46723;SDS011;32463;48.298;11.620;2023-03-22T09:05:08;5.15;;;3.42;;
46723;SDS011;32463;48.298;11.620;2023-03-22T09:07:35;6.00;;;3.20;;
46723;SDS011;32463;48.298;11.620;2023-03-22T09:10:01;7.35;;;3.45;;
46723;SDS011;32463;48.298;11.620;2023-03-22T09:12:28;4.65;;;3.10;;
46723;SDS011;32463;48.298;11.620;2023-03-22T09:14:54;5.20;;;3.28;;
46723;SDS011;32463;48.298;11.620;2023-03-22T09:17:21;7.40;;;3.08;;
46723;SDS011;32463;48.298;11.620;2023-03-22T09:19:48;8.32;;;3.05;;
46723;SDS011;32463;48.298;11.620;2023-03-22T09:22:14;5.78;;;2.95;;
46723;SDS011;32463;48.298;11.620;2023-03-22T09:24:41;7.40;;;2.55;;
46723;SDS011;32463;48.298;11.620;2023-03-22T09:27:07;3.92;;;2.60;;
46723;SDS011;32463;48.298;11.620;2023-03-22T09:29:34;4.70;;;2.85;;
46723;SDS011;32463;48.298;11.620;2023-03-22T09:32:00;4.20;;;2.47;;
46723;SDS011;32463;48.298;11.620;2023-03-22T09:34:27;3.45;;;2.40;;
46723;SDS011;32463;48.298;11.620;2023-03-22T09:36:53;5.88;;;2.60;;
46723;SDS011;32463;48.298;11.620;2023-03-22T09:39:22;5.47;;;2.72;;
46723;SDS011;32463;48.298;11.620;2023-03-22T09:41:53;4.45;;;2.67;;
46723;SDS011;32463;48.298;11.620;2023-03-22T09:44:38;6.93;;;2.47;;
46723;SDS011;32463;48.298;11.620;2023-03-22T09:47:12;5.65;;;3.10;;
46723;SDS011;32463;48.298;11.620;2023-03-22T09:49:43;6.10;;;3.00;;
46723;SDS011;32463;48.298;11.620;2023-03-22T09:52:13;4.82;;;3.00;;
46723;SDS011;32463;48.298;11.620;2023-03-22T09:54:41;4.60;;;2.97;;
46723;SDS011;32463;48.298;11.620;2023-03-22T09:57:17;4.60;;;2.70;;
46723;SDS011;32463;48.298;11.620;2023-03-22T10:00:23;5.30;;;2.53;;
46723;SDS011;32463;48.298;11.620;2023-03-22T10:05:45;3.58;;;2.55;;
46723;SDS011;32463;48.298;11.620;2023-03-22T10:10:45;5.97;;;2.58;;
46723;SDS011;32463;48.298;11.620;2023-03-22T10:13:20;4.10;;;2.92;;
46723;SDS011;32463;48.298;11.620;2023-03-22T10:15:54;4.70;;;2.80;;
46723;SDS011;32463;48.298;11.620;2023-03-22T10:18:39;6.55;;;3.00;;
46723;SDS011;32463;48.298;11.620;2023-03-22T10:21:11;4.20;;;3.03;;
46723;SDS011;32463;48.298;11.620;2023-03-22T10:26:19;6.90;;;2.95;;
46723;SDS011;32463;48.298;11.620;2023-03-22T10:28:54;4.57;;;3.00;;
46723;SDS011;32463;48.298;11.620;2023-03-22T10:31:27;4.38;;;2.75;;
46723;SDS011;32463;48.298;11.620;2023-03-22T10:34:18;4.50;;;3.00;;
46723;SDS011;32463;48.298;11.620;2023-03-22T10:39:18;4.70;;;3.20;;
46723;SDS011;32463;48.298;11.620;2023-03-22T10:41:53;5.68;;;2.80;;
46723;SDS011;32463;48.298;11.620;2023-03-22T10:44:21;7.32;;;3.03;;
46723;SDS011;32463;48.298;11.620;2023-03-22T10:46:51;4.25;;;3.10;;
46723;SDS011;32463;48.298;11.620;2023-03-22T10:49:24;5.13;;;2.63;;
46723;SDS011;32463;48.298;11.620;2023-03-22T10:51:57;4.40;;;2.80;;
46723;SDS011;32463;48.298;11.620;2023-03-22T10:54:29;4.22;;;3.00;;
46723;SDS011;32463;48.298;11.620;2023-03-22T10:56:57;5.15;;;3.05;;
46723;SDS011;32463;48.298;11.620;2023-03-22T11:02:21;4.35;;;3.00;;
46723;SDS011;32463;48.298;11.620;2023-03-22T11:04:51;4.35;;;2.83;;
46723;SDS011;32463;48.298;11.620;2023-03-22T11:12:35;4.20;;;2.78;;
46723;SDS011;32463;48.298;11.620;2023-03-22T11:15:04;6.88;;;2.60;;
46723;SDS011;32463;48.298;11.620;2023-03-22T11:17:31;7.07;;;2.70;;
46723;SDS011;32463;48.298;11.620;2023-03-22T11:20:03;4.53;;;2.58;;
46723;SDS011;32463;48.298;11.620;2023-03-22T11:22:36;6.55;;;3.00;;
46723;SDS011;32463;48.298;11.620;2023-03-22T11:25:26;4.25;;;2.67;;
46723;SDS011;32463;48.298;11.620;2023-03-22T11:30:29;3.70;;;2.72;;
46723;SDS011;32463;48.298;11.620;2023-03-22T11:33:43;4.22;;;2.55;;
46723;SDS011;32463;48.298;11.620;2023-03-22T11:35:54;6.03;;;2.45;;
46723;SDS011;32463;48.298;11.620;2023-03-22T11:41:01;4.43;;;2.40;;
46723;SDS011;32463;48.298;11.620;2023-03-22T11:43:53;4.90;;;2.20;;
46723;SDS011;32463;48.298;11.620;2023-03-22T11:46:22;4.78;;;2.70;;
46723;SDS011;32463;48.298;11.620;2023-03-22T11:48:50;4.15;;;2.50;;
46723;SDS011;32463;48.298;11.620;2023-03-22T11:51:28;5.57;;;2.85;;
46723;SDS011;32463;48.298;11.620;2023-03-22T11:56:50;4.20;;;2.70;;
46723;SDS011;32463;48.298;11.620;2023-03-22T11:59:23;5.18;;;2.70;;
46723;SDS011;32463;48.298;11.620;2023-03-22T12:01:54;2.85;;;2.00;;
46723;SDS011;32463;48.298;11.620;2023-03-22T12:04:40;4.68;;;2.10;;
46723;SDS011;32463;48.298;11.620;2023-03-22T12:07:16;3.78;;;2.10;;
46723;SDS011;32463;48.298;11.620;2023-03-22T12:12:45;2.92;;;2.08;;
46723;SDS011;32463;48.298;11.620;2023-03-22T12:15:20;3.10;;;1.73;;
46723;SDS011;32463;48.298;11.620;2023-03-22T12:20:36;2.97;;;2.03;;
46723;SDS011;32463;48.298;11.620;2023-03-22T12:23:11;3.25;;;2.30;;
46723;SDS011;32463;48.298;11.620;2023-03-22T12:25:46;6.43;;;2.20;;
46723;SDS011;32463;48.298;11.620;2023-03-22T12:29:52;5.85;;;2.00;;
46723;SDS011;32463;48.298;11.620;2023-03-22T12:32:25;5.32;;;1.88;;
46723;SDS011;32463;48.298;11.620;2023-03-22T12:34:55;2.35;;;1.70;;
46723;SDS011;32463;48.298;11.620;2023-03-22T12:37:25;2.78;;;1.95;;
46723;SDS011;32463;48.298;11.620;2023-03-22T12:39:55;3.15;;;2.05;;
46723;SDS011;32463;48.298;11.620;2023-03-22T12:42:44;4.05;;;1.73;;
46723;SDS011;32463;48.298;11.620;2023-03-22T12:45:18;4.63;;;2.00;;
46723;SDS011;32463;48.298;11.620;2023-03-22T12:50:41;5.15;;;1.90;;
46723;SDS011;32463;48.298;11.620;2023-03-22T12:53:14;3.22;;;1.83;;
46723;SDS011;32463;48.298;11.620;2023-03-22T12:55:42;3.38;;;2.10;;
46723;SDS011;32463;48.298;11.620;2023-03-22T12:58:20;5.72;;;1.85;;
46723;SDS011;32463;48.298;11.620;2023-03-22T13:03:43;3.88;;;2.03;;
46723;SDS011;32463;48.298;11.620;2023-03-22T13:12:24;4.00;;;1.50;;
46723;SDS011;32463;48.298;11.620;2023-03-22T13:19:59;2.33;;;1.60;;
46723;SDS011;32463;48.298;11.620;2023-03-22T13:32:48;3.80;;;1.52;;
46723;SDS011;32463;48.298;11.620;2023-03-22T13:35:43;2.30;;;1.45;;
46723;SDS011;32463;48.298;11.620;2023-03-22T13:38:33;2.92;;;1.50;;
46723;SDS011;32463;48.298;11.620;2023-03-22T13:41:16;5.68;;;1.50;;
46723;SDS011;32463;48.298;11.620;2023-03-22T13:43:51;3.83;;;1.38;;
46723;SDS011;32463;48.298;11.620;2023-03-22T13:51:48;1.60;;;0.90;;
46723;SDS011;32463;48.298;11.620;2023-03-22T13:54:17;1.15;;;0.82;;
46723;SDS011;32463;48.298;11.620;2023-03-22T13:56:52;2.58;;;1.00;;
46723;SDS011;32463;48.298;11.620;2023-03-22T14:09:48;2.42;;;1.45;;
46723;SDS011;32463;48.298;11.620;2023-03-22T14:12:18;2.42;;;1.40;;
46723;SDS011;32463;48.298;11.620;2023-03-22T14:14:49;2.97;;;1.50;;
46723;SDS011;32463;48.298;11.620;2023-03-22T14:20:04;4.20;;;1.30;;
46723;SDS011;32463;48.298;11.620;2023-03-22T14:22:35;3.35;;;1.40;;
46723;SDS011;32463;48.298;11.620;2023-03-22T14:25:05;3.03;;;1.40;;
46723;SDS011;32463;48.298;11.620;2023-03-22T14:27:34;3.30;;;1.25;;
46723;SDS011;32463;48.298;11.620;2023-03-22T14:30:02;1.85;;;1.30;;
46723;SDS011;32463;48.298;11.620;2023-03-22T14:32:29;1.65;;;1.17;;
46723;SDS011;32463;48.298;11.620;2023-03-22T14:35:01;2.22;;;1.20;;
46723;SDS011;32463;48.298;11.620;2023-03-22T14:37:32;2.10;;;1.00;;
46723;SDS011;32463;48.298;11.620;2023-03-22T14:39:58;1.50;;;1.08;;
46723;SDS011;32463;48.298;11.620;2023-03-22T14:42:28;3.67;;;1.58;;
46723;SDS011;32463;48.298;11.620;2023-03-22T14:45:00;2.83;;;1.77;;
46723;SDS011;32463;48.298;11.620;2023-03-22T14:47:39;1.98;;;1.23;;
46723;SDS011;32463;48.298;11.620;2023-03-22T14:50:11;1.95;;;1.10;;
46723;SDS011;32463;48.298;11.620;2023-03-22T14:52:40;2.63;;;1.40;;
46723;SDS011;32463;48.298;11.620;2023-03-22T14:55:09;6.30;;;1.45;;
46723;SDS011;32463;48.298;11.620;2023-03-22T14:57:51;2.15;;;1.23;;
46723;SDS011;32463;48.298;11.620;2023-03-22T15:00:21;1.88;;;1.35;;
46723;SDS011;32463;48.298;11.620;2023-03-22T15:03:00;2.55;;;1.40;;
46723;SDS011;32463;48.298;11.620;2023-03-22T15:05:33;3.88;;;1.52;;
46723;SDS011;32463;48.298;11.620;2023-03-22T15:08:11;2.75;;;1.60;;
46723;SDS011;32463;48.298;11.620;2023-03-22T15:10:48;2.53;;;1.60;;
46723;SDS011;32463;48.298;11.620;2023-03-22T15:13:18;2.25;;;1.27;;
46723;SDS011;32463;48.298;11.620;2023-03-22T15:15:46;3.35;;;1.60;;
46723;SDS011;32463;48.298;11.620;2023-03-22T15:18:15;3.25;;;1.20;;
46723;SDS011;32463;48.298;11.620;2023-03-22T15:20:45;4.32;;;1.25;;
46723;SDS011;32463;48.298;11.620;2023-03-22T15:23:22;5.88;;;1.23;;
46723;SDS011;32463;48.298;11.620;2023-03-22T15:25:58;1.98;;;1.20;;
46723;SDS011;32463;48.298;11.620;2023-03-22T15:28:26;6.07;;;1.10;;
46723;SDS011;32463;48.298;11.620;2023-03-22T15:30:54;2.50;;;1.30;;
46723;SDS011;32463;48.298;11.620;2023-03-22T15:33:38;2.90;;;1.30;;
46723;SDS011;32463;48.298;11.620;2023-03-22T15:36:04;3.50;;;1.15;;
46723;SDS011;32463;48.298;11.620;2023-03-22T15:38:32;2.33;;;1.20;;
46723;SDS011;32463;48.298;11.620;2023-03-22T15:41:02;2.75;;;1.38;;
46723;SDS011;32463;48.298;11.620;2023-03-22T15:43:43;3.13;;;1.48;;
46723;SDS011;32463;48.298;11.620;2023-03-22T15:46:18;4.28;;;1.60;;
46723;SDS011;32463;48.298;11.620;2023-03-22T15:48:59;2.65;;;1.25;;
46723;SDS011;32463;48.298;11.620;2023-03-22T15:51:39;3.08;;;1.20;;
46723;SDS011;32463;48.298;11.620;2023-03-22T15:56:42;3.60;;;1.58;;
46723;SDS011;32463;48.298;11.620;2023-03-22T16:02:49;2.85;;;1.70;;
46723;SDS011;32463;48.298;11.620;2023-03-22T16:05:16;3.78;;;1.58;;
46723;SDS011;32463;48.298;11.620;2023-03-22T16:07:43;2.53;;;1.33;;
46723;SDS011;32463;48.298;11.620;2023-03-22T16:10:17;1.95;;;1.20;;
46723;SDS011;32463;48.298;11.620;2023-03-22T16:12:45;4.18;;;1.50;;
46723;SDS011;32463;48.298;11.620;2023-03-22T16:15:16;3.03;;;1.40;;
46723;SDS011;32463;48.298;11.620;2023-03-22T16:17:44;28.65;;;17.20;;
46723;SDS011;32463;48.298;11.620;2023-03-22T16:20:13;9.45;;;3.78;;
46723;SDS011;32463;48.298;11.620;2023-03-22T16:22:41;17.80;;;5.68;;
46723;SDS011;32463;48.298;11.620;2023-03-22T16:25:13;4.35;;;2.03;;
46723;SDS011;32463;48.298;11.620;2023-03-22T16:27:43;6.03;;;1.65;;
46723;SDS011;32463;48.298;11.620;2023-03-22T16:30:10;2.80;;;1.52;;
46723;SDS011;32463;48.298;11.620;2023-03-22T16:32:38;5.43;;;1.30;;
46723;SDS011;32463;48.298;11.620;2023-03-22T16:35:05;2.60;;;1.40;;
46723;SDS011;32463;48.298;11.620;2023-03-22T16:37:42;2.45;;;1.10;;
46723;SDS011;32463;48.298;11.620;2023-03-22T16:40:15;4.18;;;1.85;;
46723;SDS011;32463;48.298;11.620;2023-03-22T16:42:47;3.13;;;1.55;;
46723;SDS011;32463;48.298;11.620;2023-03-22T16:45:27;3.72;;;1.95;;
46723;SDS011;32463;48.298;11.620;2023-03-22T16:47:58;1.85;;;1.13;;
46723;SDS011;32463;48.298;11.620;2023-03-22T16:50:27;4.95;;;1.08;;
46723;SDS011;32463;48.298;11.620;2023-03-22T16:52:57;3.00;;;1.23;;